Time;durP1;ratioP1;P1;durP2;ratioP2;P2;SDS_P1;SDS_P2;PMS_P1;PMS_P2;Temp;Humidity;BMP_temperature;BMP_pressure;BME280_temperature;BME280_humidity;BME280_pressure;Samples;Min_cycle;Max_cycle;Signal;HPM_P1;HPM_P2
2022/10/21 00:02:13;;;;;;;53.58;29.77;;;12.50;99.90;;;;;;6099097;23;20617;-87
2022/10/21 00:04:49;;;;;;;60.25;31.40;;;12.60;99.90;;;;;;6120606;23;20049;-88
2022/10/21 00:07:22;;;;;;;69.03;32.72;;;12.50;99.90;;;;;;6121950;23;20361;-88
2022/10/21 00:09:53;;;;;;;64.40;31.08;;;12.50;99.90;;;;;;6119806;23;20517;-88
2022/10/21 00:12:19;;;;;;;57.67;30.88;;;12.60;99.90;;;;;;6098181;23;20025;-87
2022/10/21 00:14:50;;;;;;;52.53;29.65;;;12.50;99.90;;;;;;6097365;23;20084;-87
2022/10/21 00:17:21;;;;;;;60.88;31.88;;;12.40;99.90;;;;;;6122301;23;20100;-87
2022/10/21 00:19:46;;;;;;;48.47;29.20;;;12.40;99.90;;;;;;6121330;23;20022;-88
2022/10/21 00:22:15;;;;;;;61.80;30.70;;;12.40;99.90;;;;;;6098014;23;20043;-89
2022/10/21 00:24:43;;;;;;;63.97;31.17;;;12.50;99.90;;;;;;6094442;23;20025;-88
2022/10/21 00:27:09;;;;;;;52.28;29.45;;;12.50;99.90;;;;;;6096918;23;20018;-88
2022/10/21 00:29:35;;;;;;;57.58;29.50;;;12.50;99.90;;;;;;6097098;23;20299;-87
2022/10/21 00:32:00;;;;;;;76.53;33.03;;;12.40;99.90;;;;;;6098173;23;20014;-88
2022/10/21 00:34:31;;;;;;;59.95;31.08;;;12.50;99.90;;;;;;6095875;23;20045;-89
2022/10/21 00:36:57;;;;;;;59.88;30.45;;;12.40;99.90;;;;;;6098037;23;20017;-87
2022/10/21 00:39:22;;;;;;;54.17;29.92;;;12.40;99.90;;;;;;6094186;23;20014;-87
2022/10/21 00:41:54;;;;;;;58.22;29.30;;;12.30;99.90;;;;;;6122410;23;20043;-87
2022/10/21 00:44:25;;;;;;;55.47;31.48;;;12.30;99.90;;;;;;6095997;23;20024;-87
2022/10/21 00:47:03;;;;;;;56.67;29.40;;;12.30;99.90;;;;;;6097228;23;20013;-88
2022/10/21 00:49:45;;;;;;;56.35;28.77;;;12.30;99.90;;;;;;6096042;23;20088;-87
2022/10/21 00:52:16;;;;;;;65.43;30.50;;;12.30;99.90;;;;;;6121515;23;20347;-87
2022/10/21 00:54:49;;;;;;;60.88;30.92;;;12.40;99.90;;;;;;6095329;23;20018;-87
2022/10/21 00:57:20;;;;;;;55.35;29.85;;;12.40;99.90;;;;;;6097072;23;20021;-87
2022/10/21 00:59:50;;;;;;;57.17;30.35;;;12.40;99.90;;;;;;6097131;23;20017;-87
2022/10/21 01:02:18;;;;;;;64.90;32.80;;;12.30;99.90;;;;;;6096888;23;20014;-87
2022/10/21 01:04:46;;;;;;;59.17;30.85;;;12.50;99.90;;;;;;6095903;23;20017;-87
2022/10/21 01:07:17;;;;;;;57.90;30.85;;;12.30;99.90;;;;;;6096754;23;20017;-87
2022/10/21 01:09:43;;;;;;;60.97;30.70;;;12.30;99.90;;;;;;6089315;23;20013;-87
2022/10/21 01:12:50;;;;;;;61.13;30.23;;;12.30;99.90;;;;;;6096158;23;20014;-87
2022/10/21 01:15:38;;;;;;;53.15;29.75;;;12.40;99.90;;;;;;6094222;23;20022;-87
2022/10/21 01:18:46;;;;;;;57.75;30.70;;;12.40;99.90;;;;;;6096717;23;20009;-87
2022/10/21 01:21:50;;;;;;;61.17;30.10;;;12.30;99.90;;;;;;6098955;23;20024;-88
2022/10/21 01:24:41;;;;;;;53.78;30.33;;;12.30;99.90;;;;;;6093118;23;20013;-87
2022/10/21 01:27:19;;;;;;;56.85;30.63;;;12.40;99.90;;;;;;6121014;23;20018;-87
2022/10/21 01:30:30;;;;;;;62.05;30.80;;;12.30;99.90;;;;;;6095338;23;20453;-87
2022/10/21 01:33:34;;;;;;;58.70;30.17;;;12.30;99.90;;;;;;6098902;23;20024;-88
2022/10/21 01:36:09;;;;;;;67.72;31.23;;;12.30;99.90;;;;;;6096969;23;20022;-87
2022/10/21 01:39:08;;;;;;;58.78;30.88;;;12.30;99.90;;;;;;6095145;23;20637;-87
2022/10/21 01:41:51;;;;;;;54.97;29.67;;;12.30;99.90;;;;;;6096633;23;20024;-88
2022/10/21 01:44:42;;;;;;;57.20;30.65;;;12.30;99.90;;;;;;6096587;23;20430;-87
2022/10/21 01:47:26;;;;;;;64.13;30.80;;;12.30;99.90;;;;;;6096620;23;20009;-87
2022/10/21 01:50:17;;;;;;;65.57;30.02;;;12.20;99.90;;;;;;6093752;23;20014;-87
2022/10/21 01:52:53;;;;;;;59.05;31.08;;;12.30;99.90;;;;;;6095589;23;20335;-87
2022/10/21 01:55:22;;;;;;;58.30;30.00;;;12.40;99.90;;;;;;6095113;23;20488;-88
2022/10/21 01:57:58;;;;;;;52.55;28.75;;;12.30;99.90;;;;;;6098100;23;20029;-88
2022/10/21 02:00:35;;;;;;;60.60;28.77;;;12.40;99.90;;;;;;6098091;23;20021;-87
2022/10/21 02:03:07;;;;;;;59.97;30.17;;;12.40;99.90;;;;;;6121559;23;20100;-87
2022/10/21 02:05:39;;;;;;;52.42;28.52;;;12.40;99.90;;;;;;6097803;23;20021;-89
2022/10/21 02:08:04;;;;;;;57.78;31.50;;;12.40;99.90;;;;;;6095395;23;20394;-87
2022/10/21 02:10:43;;;;;;;58.03;29.85;;;12.50;99.90;;;;;;6093945;23;20104;-87
2022/10/21 02:13:19;;;;;;;57.53;31.42;;;12.60;99.90;;;;;;6097037;23;20057;-87
2022/10/21 02:15:56;;;;;;;55.35;29.55;;;12.60;99.90;;;;;;6097564;23;20024;-88
2022/10/21 02:18:36;;;;;;;64.35;30.67;;;12.60;99.90;;;;;;6121225;23;20232;-87
2022/10/21 02:21:06;;;;;;;58.50;30.60;;;12.60;99.90;;;;;;6095595;23;20458;-88
2022/10/21 02:23:45;;;;;;;55.13;30.17;;;12.80;99.90;;;;;;6118495;23;20326;-87
2022/10/21 02:26:14;;;;;;;65.70;31.27;;;12.70;99.90;;;;;;6096821;23;20017;-87
2022/10/21 02:29:06;;;;;;;55.78;29.58;;;12.90;99.90;;;;;;6095310;23;20757;-87
2022/10/21 02:31:50;;;;;;;57.17;29.95;;;12.90;99.90;;;;;;6095478;23;20022;-86
2022/10/21 02:34:50;;;;;;;60.17;30.02;;;12.90;99.90;;;;;;6095045;23;20148;-87
2022/10/21 02:37:58;;;;;;;51.60;28.80;;;13.00;99.90;;;;;;6097193;23;20469;-88
2022/10/21 02:40:43;;;;;;;59.88;29.13;;;13.10;99.90;;;;;;6093810;23;20024;-87
2022/10/21 02:43:24;;;;;;;55.42;29.17;;;13.10;99.90;;;;;;6096293;23;20018;-87
2022/10/21 02:45:58;;;;;;;54.10;29.98;;;13.10;99.90;;;;;;6120103;23;20020;-87
2022/10/21 02:48:24;;;;;;;58.72;30.30;;;13.20;99.90;;;;;;6095770;23;20480;-87
2022/10/21 02:50:59;;;;;;;62.17;30.45;;;13.20;99.90;;;;;;6095389;23;20009;-86
2022/10/21 02:53:25;;;;;;;61.10;29.85;;;13.20;99.90;;;;;;6093365;23;20088;-87
2022/10/21 02:55:50;;;;;;;62.00;30.55;;;13.20;99.90;;;;;;6092817;23;20040;-87
2022/10/21 02:58:16;;;;;;;58.38;29.63;;;13.20;99.90;;;;;;6094723;23;20017;-85
2022/10/21 03:00:49;;;;;;;61.15;30.13;;;13.30;99.90;;;;;;6094427;23;20526;-85
2022/10/21 03:03:15;;;;;;;63.38;30.85;;;13.30;99.90;;;;;;6095087;23;20115;-86
2022/10/21 03:05:41;;;;;;;62.53;30.75;;;13.20;99.90;;;;;;6094117;23;20186;-86
2022/10/21 03:08:07;;;;;;;67.25;32.47;;;13.30;99.90;;;;;;6090206;23;20014;-86
2022/10/21 03:10:35;;;;;;;58.50;31.67;;;13.30;99.90;;;;;;6093292;23;20498;-86
2022/10/21 03:13:01;;;;;;;59.38;31.55;;;13.30;99.90;;;;;;6095335;23;20119;-88
2022/10/21 03:15:27;;;;;;;75.45;33.67;;;13.30;99.90;;;;;;6095509;23;20379;-86
2022/10/21 03:17:52;;;;;;;56.80;29.98;;;13.30;99.90;;;;;;6095903;23;20049;-86
2022/10/21 03:20:21;;;;;;;59.50;30.13;;;13.30;99.90;;;;;;6095015;23;20251;-87
2022/10/21 03:22:55;;;;;;;51.78;28.45;;;13.40;99.90;;;;;;6096862;23;20051;-89
2022/10/21 03:25:31;;;;;;;69.70;32.17;;;13.30;99.90;;;;;;6093234;23;20104;-87
2022/10/21 03:28:08;;;;;;;57.88;30.13;;;13.30;99.90;;;;;;6095561;23;20115;-86
2022/10/21 03:30:39;;;;;;;52.38;29.70;;;13.40;99.90;;;;;;6095436;23;20014;-87
2022/10/21 03:33:14;;;;;;;49.63;28.88;;;13.50;99.90;;;;;;6094909;23;20049;-86
2022/10/21 03:35:45;;;;;;;65.45;31.27;;;13.50;99.90;;;;;;6089658;23;20439;-87
2022/10/21 03:38:16;;;;;;;84.30;32.28;;;13.50;99.90;;;;;;6090432;23;20053;-86
2022/10/21 03:40:48;;;;;;;60.92;29.35;;;13.40;99.90;;;;;;6113299;23;20487;-87
2022/10/21 03:43:16;;;;;;;59.72;29.00;;;13.30;99.90;;;;;;6091587;23;20465;-88
2022/10/21 03:45:42;;;;;;;58.45;28.92;;;13.40;99.90;;;;;;6090575;23;20192;-86
2022/10/21 03:48:11;;;;;;;54.42;29.63;;;13.50;99.90;;;;;;6091524;23;20188;-87
2022/10/21 03:50:54;;;;;;;55.83;28.48;;;13.40;99.90;;;;;;6091173;23;20020;-87
2022/10/21 03:53:31;;;;;;;46.10;26.65;;;13.30;99.90;;;;;;6113525;23;20122;-85
2022/10/21 03:55:57;;;;;;;49.73;29.40;;;13.40;99.90;;;;;;6088911;23;20419;-87
2022/10/21 03:58:42;;;;;;;46.30;27.42;;;13.40;99.90;;;;;;6090444;23;20037;-88
2022/10/21 04:01:12;;;;;;;;;;;13.40;99.90;;;;;;6091059;23;20025;-87
2022/10/21 04:03:38;;;;;;;55.42;29.25;;;13.40;99.90;;;;;;6087963;23;19917;-86
2022/10/21 04:06:04;;;;;;;49.42;28.95;;;13.50;99.90;;;;;;6090890;23;20442;-87
2022/10/21 04:08:35;;;;;;;50.85;28.52;;;13.50;99.90;;;;;;6089479;23;20350;-87
2022/10/21 04:11:03;;;;;;;63.60;30.65;;;13.50;99.90;;;;;;6089598;23;20105;-86
2022/10/21 04:13:30;;;;;;;47.50;28.38;;;13.50;99.90;;;;;;6115237;23;20018;-87
2022/10/21 04:16:15;;;;;;;48.38;26.80;;;13.50;99.90;;;;;;6090269;23;20014;-87
2022/10/21 04:18:50;;;;;;;47.03;27.23;;;13.40;99.90;;;;;;6087352;23;20330;-86
2022/10/21 04:21:33;;;;;;;47.40;27.55;;;13.50;99.90;;;;;;6093006;23;20033;-88
2022/10/21 04:24:09;;;;;;;69.55;33.00;;;13.40;99.90;;;;;;6087645;23;20283;-87
2022/10/21 04:26:44;;;;;;;53.60;29.73;;;13.40;99.90;;;;;;6115675;23;20014;-87
2022/10/21 04:29:13;;;;;;;73.30;32.22;;;13.60;99.90;;;;;;6085200;23;20021;-86
2022/10/21 04:31:41;;;;;;;64.47;30.55;;;13.70;99.90;;;;;;6091172;23;20120;-87
2022/10/21 04:34:12;;;;;;;85.00;34.45;;;13.60;99.90;;;;;;6089824;23;20530;-87
2022/10/21 04:36:41;;;;;;;58.83;29.38;;;13.50;99.90;;;;;;6090904;23;20092;-87
2022/10/21 04:39:07;;;;;;;60.85;28.35;;;13.40;99.90;;;;;;6088225;23;20085;-86
2022/10/21 04:41:33;;;;;;;85.03;30.35;;;13.50;99.90;;;;;;6090469;23;20077;-88
2022/10/21 04:44:02;;;;;;;132.07;32.63;;;13.40;99.90;;;;;;6090247;23;20110;-87
2022/10/21 04:46:31;;;;;;;66.43;30.33;;;13.50;99.90;;;;;;6091516;23;20080;-86
2022/10/21 04:48:57;;;;;;;176.70;37.65;;;13.40;99.90;;;;;;6091038;23;20072;-87
2022/10/21 04:51:22;;;;;;;91.30;31.13;;;13.40;99.90;;;;;;6091105;23;20077;-88
2022/10/21 04:53:54;;;;;;;87.63;31.58;;;13.60;99.90;;;;;;6088029;23;20063;-87
2022/10/21 04:56:20;;;;;;;60.45;29.75;;;13.50;99.90;;;;;;6090871;23;20343;-86
2022/10/21 04:58:49;;;;;;;62.17;29.60;;;13.50;99.90;;;;;;6090429;23;20018;-87
2022/10/21 05:01:14;;;;;;;87.40;33.83;;;13.60;99.90;;;;;;6091040;23;20049;-87
2022/10/21 05:03:43;;;;;;;135.77;38.95;;;13.60;99.90;;;;;;6090958;23;20017;-87
2022/10/21 05:06:08;;;;;;;315.70;50.50;;;13.60;99.90;;;;;;6091368;23;20512;-88
2022/10/21 05:08:36;;;;;;;183.38;37.78;;;13.70;99.90;;;;;;6088955;23;20424;-86
2022/10/21 05:11:10;;;;;;;328.48;50.05;;;13.60;99.90;;;;;;6090797;23;20030;-86
2022/10/21 05:13:44;;;;;;;94.78;33.33;;;13.70;99.90;;;;;;6090541;23;20304;-88
2022/10/21 05:16:15;;;;;;;135.05;33.38;;;13.60;99.90;;;;;;6091187;23;20344;-87
2022/10/21 05:18:41;;;;;;;121.43;34.03;;;13.50;99.90;;;;;;6090595;23;20459;-86
2022/10/21 05:21:10;;;;;;;520.80;60.90;;;13.70;99.90;;;;;;6090285;23;20081;-87
2022/10/21 05:23:41;;;;;;;290.08;45.47;;;13.70;99.90;;;;;;6088175;23;20379;-87
2022/10/21 05:26:07;;;;;;;326.73;52.35;;;13.70;99.90;;;;;;6113237;23;20077;-87
2022/10/21 05:28:39;;;;;;;260.85;47.80;;;13.60;99.90;;;;;;6090350;23;20010;-86
2022/10/21 05:31:15;;;;;;;192.43;43.35;;;13.70;99.90;;;;;;6089644;23;20032;-88
2022/10/21 05:33:40;;;;;;;101.80;32.67;;;13.70;99.90;;;;;;6089910;23;20013;-87
2022/10/21 05:36:26;;;;;;;123.35;34.95;;;13.80;99.90;;;;;;6090361;23;20108;-87
2022/10/21 05:39:10;;;;;;;172.63;39.20;;;13.70;99.90;;;;;;6088057;23;20085;-86
2022/10/21 05:41:43;;;;;;;138.75;37.30;;;13.80;99.90;;;;;;6090489;23;20061;-88
2022/10/21 05:44:21;;;;;;;143.20;37.95;;;13.80;99.90;;;;;;6092470;23;20370;-86
2022/10/21 05:46:49;;;;;;;84.70;32.15;;;13.70;99.90;;;;;;6090982;23;20108;-86
2022/10/21 05:49:35;;;;;;;141.40;36.45;;;13.80;99.90;;;;;;6092394;23;20347;-86
2022/10/21 05:52:04;;;;;;;93.88;31.38;;;13.80;99.90;;;;;;6090483;23;20041;-87
2022/10/21 05:54:32;;;;;;;112.57;33.03;;;13.80;99.90;;;;;;6088063;23;20018;-86
2022/10/21 05:57:13;;;;;;;93.72;31.63;;;13.80;99.90;;;;;;6114004;23;20100;-87
2022/10/21 05:59:48;;;;;;;87.57;32.50;;;13.80;99.90;;;;;;6114487;23;20018;-86
2022/10/21 06:02:19;;;;;;;77.70;29.63;;;13.80;99.90;;;;;;6115547;23;20018;-86
2022/10/21 06:04:58;;;;;;;85.10;32.17;;;13.70;99.90;;;;;;6089283;23;20013;-87
2022/10/21 06:07:29;;;;;;;71.88;28.02;;;13.80;99.90;;;;;;6090517;23;20112;-86
2022/10/21 06:09:58;;;;;;;69.50;30.13;;;13.80;99.90;;;;;;6112026;23;20077;-86
2022/10/21 06:13:06;;;;;;;68.65;29.95;;;13.80;99.90;;;;;;6114362;23;20100;-86
2022/10/21 06:15:32;;;;;;;95.93;34.42;;;13.70;99.90;;;;;;6089743;23;20030;-86
2022/10/21 06:18:14;;;;;;;79.07;31.83;;;13.60;99.90;;;;;;6114986;23;20029;-86
2022/10/21 06:20:54;;;;;;;59.15;27.15;;;13.60;99.90;;;;;;6114905;23;20028;-87
2022/10/21 06:23:28;;;;;;;70.00;30.48;;;13.40;99.90;;;;;;6090020;23;20050;-86
2022/10/21 06:26:08;;;;;;;54.00;27.07;;;13.40;99.90;;;;;;6089362;23;20437;-86
2022/10/21 06:28:37;;;;;;;57.15;26.60;;;13.30;99.90;;;;;;6092744;23;20015;-87
2022/10/21 06:31:25;;;;;;;54.95;27.58;;;13.30;99.90;;;;;;6090418;23;20042;-86
2022/10/21 06:34:01;;;;;;;60.65;27.23;;;13.20;99.90;;;;;;6092696;23;20425;-87
2022/10/21 06:36:27;;;;;;;62.63;26.70;;;13.20;99.90;;;;;;6118020;23;20018;-86
2022/10/21 06:39:05;;;;;;;51.30;26.17;;;13.20;99.90;;;;;;6093401;23;20356;-86
2022/10/21 06:41:44;;;;;;;44.53;23.63;;;13.20;99.90;;;;;;6093814;23;20037;-86
2022/10/21 06:44:14;;;;;;;68.03;28.55;;;13.10;99.90;;;;;;6094320;23;20018;-87
2022/10/21 06:46:49;;;;;;;44.92;23.90;;;13.10;99.90;;;;;;6120031;23;20017;-86
2022/10/21 06:49:15;;;;;;;50.78;25.25;;;13.20;99.90;;;;;;6093087;23;20028;-87
2022/10/21 06:51:43;;;;;;;56.33;27.00;;;13.20;99.90;;;;;;6092299;23;20017;-87
2022/10/21 06:54:15;;;;;;;52.45;24.60;;;13.20;99.90;;;;;;6088107;23;20029;-88
2022/10/21 06:56:41;;;;;;;51.83;26.17;;;13.10;99.90;;;;;;6092173;23;20018;-88
2022/10/21 06:59:09;;;;;;;47.17;24.77;;;13.20;99.90;;;;;;6090821;23;20018;-86
2022/10/21 07:01:40;;;;;;;50.25;24.95;;;13.10;99.90;;;;;;6116505;23;20014;-86
2022/10/21 07:04:05;;;;;;;49.70;24.55;;;13.10;99.90;;;;;;6086176;23;20310;-87
2022/10/21 07:06:34;;;;;;;45.30;24.45;;;13.20;99.90;;;;;;6091889;23;20018;-86
2022/10/21 07:09:06;;;;;;;67.32;26.05;;;13.20;99.90;;;;;;6088854;23;20022;-88
2022/10/21 07:11:49;;;;;;;44.05;23.73;;;13.20;99.90;;;;;;6091916;23;20029;-87
2022/10/21 07:14:14;;;;;;;43.97;23.50;;;13.20;99.90;;;;;;6091336;23;20462;-85
2022/10/21 07:16:43;;;;;;;51.17;24.00;;;13.40;99.90;;;;;;6092362;23;20097;-87
2022/10/21 07:19:15;;;;;;;38.47;22.48;;;13.30;99.90;;;;;;6091811;23;20053;-88
2022/10/21 07:21:43;;;;;;;39.97;22.42;;;13.30;99.90;;;;;;6091207;23;20021;-87
2022/10/21 07:24:09;;;;;;;72.65;24.70;;;13.40;99.90;;;;;;6088471;23;20463;-87
2022/10/21 07:26:34;;;;;;;134.75;27.15;;;13.40;99.90;;;;;;6090694;23;20073;-87
2022/10/21 07:29:03;;;;;;;38.00;19.90;;;13.40;99.90;;;;;;6090189;23;20014;-87
2022/10/21 07:31:32;;;;;;;34.42;20.05;;;13.40;99.90;;;;;;6116484;23;20698;-86
2022/10/21 07:34:02;;;;;;;35.17;20.02;;;13.30;99.90;;;;;;6091011;23;20017;-87
2022/10/21 07:36:43;;;;;;;37.22;20.42;;;13.30;99.90;;;;;;6091068;23;20040;-87
2022/10/21 07:39:16;;;;;;;45.95;22.23;;;13.40;99.90;;;;;;6087350;23;20122;-87
2022/10/21 07:41:51;;;;;;;37.75;21.80;;;13.30;99.90;;;;;;6089570;23;20458;-86
2022/10/21 07:44:28;;;;;;;;;;;13.30;99.90;;;;;;6089956;23;20013;-86
2022/10/21 07:47:05;;;;;;;35.72;19.48;;;13.50;99.90;;;;;;6091883;23;19916;-86
2022/10/21 07:49:41;;;;;;;39.28;19.48;;;13.40;99.90;;;;;;6088176;23;20020;-86
2022/10/21 07:52:12;;;;;;;47.83;22.17;;;13.50;99.90;;;;;;6113159;23;20018;-87
2022/10/21 07:55:01;;;;;;;37.83;21.13;;;13.50;99.90;;;;;;6111479;23;20335;-88
2022/10/21 07:57:46;;;;;;;61.65;23.08;;;13.60;99.90;;;;;;6115087;23;20040;-86
2022/10/21 08:00:22;;;;;;;34.65;19.85;;;13.60;99.90;;;;;;6089393;23;20300;-86
2022/10/21 08:02:56;;;;;;;49.08;21.35;;;13.60;99.90;;;;;;6089725;23;20017;-87
2022/10/21 08:05:36;;;;;;;;;;;13.60;99.90;;;;;;6089135;23;20201;-86
2022/10/21 08:08:20;;;;;;;34.65;19.17;;;13.80;99.90;;;;;;6090464;23;20382;-87
2022/10/21 08:10:56;;;;;;;33.83;19.88;;;13.70;99.90;;;;;;6086898;23;20033;-88
2022/10/21 08:13:30;;;;;;;42.00;22.10;;;13.90;99.90;;;;;;6087213;23;20026;-87
2022/10/21 08:15:59;;;;;;;36.08;21.48;;;14.10;99.90;;;;;;6089882;23;20072;-87
2022/10/21 08:18:42;;;;;;;36.00;21.35;;;14.10;99.90;;;;;;6089566;23;20028;-86
2022/10/21 08:21:22;;;;;;;40.92;22.10;;;14.20;99.90;;;;;;6091350;23;20274;-87
2022/10/21 08:23:50;;;;;;;36.47;21.60;;;14.40;99.90;;;;;;6087829;23;20110;-86
2022/10/21 08:26:32;;;;;;;35.55;22.17;;;14.50;99.90;;;;;;6089817;23;20018;-86
2022/10/21 08:29:25;;;;;;;40.38;22.17;;;14.70;99.90;;;;;;6090729;23;20103;-86
2022/10/21 08:31:54;;;;;;;35.92;21.80;;;15.00;99.90;;;;;;6076951;23;20406;-86
2022/10/21 08:34:43;;;;;;;32.67;21.95;;;15.10;99.90;;;;;;6030112;23;20019;-87
2022/10/21 08:37:23;;;;;;;53.13;28.45;;;15.30;99.90;;;;;;6030278;23;20022;-86
2022/10/21 08:40:13;;;;;;;33.50;22.13;;;15.40;99.90;;;;;;6050213;23;20019;-87
2022/10/21 08:43:06;;;;;;;32.53;20.83;;;15.50;99.90;;;;;;6031109;23;20387;-86
2022/10/21 08:46:01;;;;;;;35.70;21.10;;;15.60;99.90;;;;;;6030814;23;20376;-86
2022/10/21 08:48:45;;;;;;;33.78;21.25;;;15.80;99.90;;;;;;6030742;23;20546;-86
2022/10/21 08:52:05;;;;;;;27.90;19.65;;;15.90;99.90;;;;;;6029925;23;20535;-86
2022/10/21 08:54:49;;;;;;;31.23;19.40;;;16.00;99.90;;;;;;6025541;23;20078;-88
2022/10/21 08:57:22;;;;;;;35.55;19.25;;;16.10;99.90;;;;;;6054633;23;20071;-88
2022/10/21 08:59:53;;;;;;;27.73;18.38;;;16.30;99.90;;;;;;6028721;23;20035;-87
2022/10/21 09:02:39;;;;;;;33.72;18.58;;;16.50;99.90;;;;;;6031006;23;20105;-87
2022/10/21 09:05:13;;;;;;;32.47;19.83;;;16.60;99.90;;;;;;6052620;23;20017;-87
2022/10/21 09:08:04;;;;;;;28.93;16.93;;;16.70;99.90;;;;;;6115231;23;20089;-87
2022/10/21 09:10:34;;;;;;;28.90;16.63;;;16.60;99.90;;;;;;6088443;23;20482;-87
2022/10/21 09:13:40;;;;;;;30.67;17.20;;;17.00;99.90;;;;;;6091133;23;20023;-88
2022/10/21 09:16:09;;;;;;;;;;;16.90;99.90;;;;;;6114902;23;20471;-87
2022/10/21 09:19:19;;;;;;;40.70;17.23;;;16.90;99.90;;;;;;6089415;23;19917;-87
2022/10/21 09:22:31;;;;;;;22.40;15.35;;;17.20;99.90;;;;;;5990801;23;20278;-87
2022/10/21 09:25:37;;;;;;;23.60;15.00;;;17.20;99.90;;;;;;6091157;23;20014;-88
2022/10/21 09:28:30;;;;;;;25.23;13.90;;;17.20;99.90;;;;;;6092982;23;20056;-87
2022/10/21 09:31:15;;;;;;;19.10;14.30;;;16.90;99.90;;;;;;6087960;23;20413;-88
2022/10/21 09:33:46;;;;;;;22.45;14.10;;;17.00;99.90;;;;;;6090773;23;20394;-86
2022/10/21 09:36:35;;;;;;;20.58;13.90;;;16.90;99.90;;;;;;6091814;23;20025;-87
2022/10/21 09:39:11;;;;;;;18.85;13.30;;;17.10;99.90;;;;;;6110264;23;20168;-86
2022/10/21 09:41:48;;;;;;;18.92;13.52;;;17.00;99.90;;;;;;6111195;23;20018;-86
2022/10/21 09:44:37;;;;;;;18.98;13.57;;;16.90;99.90;;;;;;6086827;23;20088;-86
2022/10/21 09:47:30;;;;;;;19.35;12.40;;;16.90;99.90;;;;;;6089958;23;20100;-87
2022/10/21 09:50:06;;;;;;;17.58;13.25;;;16.80;99.90;;;;;;6087047;23;20024;-87
2022/10/21 09:53:01;;;;;;;21.58;12.20;;;17.20;99.90;;;;;;6089686;23;20454;-86
2022/10/21 09:55:36;;;;;;;22.88;12.20;;;17.30;99.90;;;;;;6088257;23;20014;-87
2022/10/21 09:58:19;;;;;;;21.65;12.75;;;17.30;99.90;;;;;;6087265;23;20026;-87
2022/10/21 10:00:51;;;;;;;14.85;11.68;;;17.30;99.90;;;;;;6106572;23;20367;-88
2022/10/21 10:03:49;;;;;;;19.40;12.75;;;17.30;99.90;;;;;;6086749;23;20343;-86
2022/10/21 10:06:48;;;;;;;17.60;11.93;;;17.70;99.90;;;;;;6089157;23;20018;-85
2022/10/21 10:09:30;;;;;;;18.25;12.05;;;18.00;99.90;;;;;;6084977;23;20498;-86
2022/10/21 10:12:11;;;;;;;18.63;12.27;;;17.90;99.90;;;;;;6083419;23;20346;-87
2022/10/21 10:14:44;;;;;;;20.65;12.00;;;18.20;99.90;;;;;;6087821;23;20014;-86
2022/10/21 10:17:40;;;;;;;20.05;12.32;;;18.00;99.90;;;;;;6086401;23;20348;-87
2022/10/21 10:20:23;;;;;;;14.48;10.93;;;17.90;99.90;;;;;;6111025;23;20016;-87
2022/10/21 10:22:58;;;;;;;15.63;10.77;;;17.50;99.90;;;;;;6087005;23;20026;-86
2022/10/21 10:25:41;;;;;;;17.27;11.48;;;17.50;99.90;;;;;;6085752;23;20028;-86
2022/10/21 10:28:29;;;;;;;22.85;11.27;;;17.30;99.90;;;;;;6112312;23;20018;-86
2022/10/21 10:31:08;;;;;;;;;;;;;;;;;;;;;
2022/10/21 10:33:59;;;;;;;18.58;11.50;;;17.50;99.90;;;;;;6111264;23;20022;-87
2022/10/21 10:36:33;;;;;;;19.27;12.23;;;17.40;99.90;;;;;;6087949;23;20222;-86
2022/10/21 10:39:01;;;;;;;20.73;11.10;;;17.60;99.90;;;;;;6083619;23;20026;-86
2022/10/21 10:41:34;;;;;;;16.83;10.75;;;17.60;99.90;;;;;;6087498;23;20018;-86
2022/10/21 10:44:39;;;;;;;14.88;11.00;;;17.60;99.90;;;;;;6087616;23;20024;-86
2022/10/21 10:47:29;;;;;;;19.45;11.30;;;17.70;99.90;;;;;;6079655;23;20021;-87
2022/10/21 10:50:06;;;;;;;21.50;11.63;;;17.60;99.90;;;;;;6087788;23;20320;-86
2022/10/21 10:52:32;;;;;;;18.33;11.70;;;17.70;99.90;;;;;;6087745;23;20029;-86
2022/10/21 10:55:18;;;;;;;15.05;11.23;;;17.70;99.90;;;;;;6086042;23;20014;-86
2022/10/21 10:57:47;;;;;;;16.77;10.13;;;17.60;99.90;;;;;;6086056;23;20098;-87
2022/10/21 11:00:21;;;;;;;17.67;10.95;;;17.70;99.90;;;;;;6085901;23;20285;-86
2022/10/21 11:02:59;;;;;;;12.85;10.90;;;17.80;99.90;;;;;;6084725;23;20018;-87
2022/10/21 11:05:39;;;;;;;18.20;11.45;;;17.70;99.90;;;;;;6085190;23;20014;-87
2022/10/21 11:08:22;;;;;;;19.55;11.10;;;17.80;99.90;;;;;;6087090;23;20399;-86
2022/10/21 11:11:22;;;;;;;18.90;9.43;;;17.80;99.90;;;;;;6085037;23;20116;-87
2022/10/21 11:13:56;;;;;;;17.05;10.18;;;17.80;99.90;;;;;;6087458;23;20439;-86
2022/10/21 11:16:31;;;;;;;13.48;9.30;;;17.80;99.90;;;;;;6088989;23;20715;-87
2022/10/21 11:19:11;;;;;;;15.32;9.25;;;17.90;99.90;;;;;;6086686;23;20045;-86
2022/10/21 11:21:43;;;;;;;12.82;9.13;;;18.10;99.90;;;;;;6087675;23;20390;-87
2022/10/21 11:24:36;;;;;;;15.65;9.63;;;18.10;99.90;;;;;;6086252;23;20020;-87
2022/10/21 11:27:14;;;;;;;13.27;8.93;;;18.00;99.90;;;;;;6087815;23;20018;-87
2022/10/21 11:30:01;;;;;;;13.80;8.70;;;18.10;99.90;;;;;;6089416;23;20343;-86
2022/10/21 11:32:42;;;;;;;13.82;8.80;;;18.30;99.90;;;;;;6113547;23;20097;-88
2022/10/21 11:35:22;;;;;;;17.17;8.30;;;18.20;99.90;;;;;;6112254;23;20029;-86
2022/10/21 11:38:00;;;;;;;12.23;8.40;;;18.00;99.90;;;;;;6089196;23;20096;-87
2022/10/21 11:40:47;;;;;;;16.58;9.05;;;18.00;99.90;;;;;;6090046;23;20033;-86
2022/10/21 11:43:50;;;;;;;12.13;8.15;;;18.10;99.90;;;;;;6090799;23;20033;-87
2022/10/21 11:46:37;;;;;;;13.68;8.77;;;18.40;99.90;;;;;;6088999;23;20354;-87
2022/10/21 11:49:14;;;;;;;12.48;8.60;;;18.20;99.90;;;;;;6091054;23;20014;-87
2022/10/21 11:51:50;;;;;;;10.90;7.90;;;18.20;99.90;;;;;;6090754;23;20471;-86
2022/10/21 11:54:44;;;;;;;15.68;8.27;;;18.10;99.90;;;;;;6087115;23;20431;-87
2022/10/21 11:57:24;;;;;;;14.07;7.85;;;18.10;99.90;;;;;;6088334;23;20018;-87
2022/10/21 12:00:11;;;;;;;14.93;8.82;;;18.10;99.90;;;;;;6089945;23;20459;-87
2022/10/21 12:03:02;;;;;;;18.40;8.80;;;18.10;99.90;;;;;;6088515;23;20021;-85
2022/10/21 12:05:53;;;;;;;15.35;8.13;;;18.10;99.90;;;;;;6088677;23;20030;-87
2022/10/21 12:08:32;;;;;;;15.30;8.73;;;17.80;99.90;;;;;;6088214;23;20057;-86
2022/10/21 12:11:40;;;;;;;15.07;8.80;;;18.00;99.90;;;;;;6089012;23;20130;-87
2022/10/21 12:14:32;;;;;;;12.88;8.60;;;17.90;99.90;;;;;;6087542;23;20363;-87
2022/10/21 12:17:03;;;;;;;10.38;8.07;;;17.90;99.90;;;;;;6112239;23;20320;-86
2022/10/21 12:19:44;;;;;;;19.77;8.85;;;17.80;99.90;;;;;;6088605;23;20092;-86
2022/10/21 12:22:21;;;;;;;15.13;8.82;;;18.10;99.90;;;;;;6088594;23;20018;-87
2022/10/21 12:25:14;;;;;;;11.82;8.38;;;18.10;99.90;;;;;;6085350;23;20105;-86
2022/10/21 12:28:03;;;;;;;15.25;8.48;;;18.20;99.90;;;;;;6058012;23;20655;-87
2022/10/21 12:31:10;;;;;;;11.88;8.27;;;18.10;99.90;;;;;;6087583;23;20385;-86
2022/10/21 12:33:47;;;;;;;15.48;8.90;;;18.20;99.90;;;;;;6112302;23;20076;-87
2022/10/21 12:36:39;;;;;;;12.13;8.38;;;17.90;99.90;;;;;;6086883;23;20089;-87
2022/10/21 12:39:33;;;;;;;14.15;8.65;;;18.00;99.90;;;;;;6085091;23;20018;-86
2022/10/21 12:42:14;;;;;;;11.82;8.10;;;17.90;99.90;;;;;;6086610;23;20013;-85
2022/10/21 12:44:56;;;;;;;23.73;8.52;;;17.80;99.90;;;;;;6088431;23;20101;-87
2022/10/21 12:47:43;;;;;;;17.52;7.75;;;17.80;99.90;;;;;;6088201;23;20072;-88
2022/10/21 12:50:31;;;;;;;11.68;7.38;;;18.00;99.90;;;;;;6085763;23;20462;-86
2022/10/21 12:53:26;;;;;;;10.48;7.40;;;17.90;99.90;;;;;;6085936;23;20212;-87
2022/10/21 12:56:00;;;;;;;10.55;7.18;;;17.80;99.90;;;;;;6084786;23;20014;-86
2022/10/21 12:58:38;;;;;;;10.90;6.63;;;17.80;99.90;;;;;;6087259;23;20073;-85
2022/10/21 13:01:26;;;;;;;19.33;7.53;;;17.90;99.90;;;;;;6111656;23;20013;-87
2022/10/21 13:04:04;;;;;;;13.02;7.13;;;17.70;99.90;;;;;;6087153;23;20017;-87
2022/10/21 13:06:58;;;;;;;12.55;6.75;;;17.70;99.90;;;;;;6083358;23;20013;-88
2022/10/21 13:09:54;;;;;;;12.77;7.07;;;17.70;99.90;;;;;;6085308;23;20077;-87
2022/10/21 13:12:23;;;;;;;12.68;7.03;;;17.60;99.90;;;;;;6085687;23;20463;-87
2022/10/21 13:15:23;;;;;;;13.73;7.22;;;17.60;99.90;;;;;;6110687;23;20057;-88
2022/10/21 13:17:55;;;;;;;23.00;7.78;;;17.50;99.90;;;;;;6085986;23;20100;-86
2022/10/21 13:20:32;;;;;;;19.33;7.30;;;17.50;99.90;;;;;;6110826;23;20080;-86
2022/10/21 13:23:50;;;;;;;15.45;8.13;;;17.50;99.90;;;;;;6110663;23;20122;-87
2022/10/21 13:26:26;;;;;;;13.00;7.60;;;17.50;99.90;;;;;;6057776;23;20018;-87